地図

経路データ

SID SEASON NUMBER BASIN SUBBASIN NAME ISO_TIME NATURE LAT LON WMO_WIND WMO_PRES WMO_AGENCY TRACK_TYPE DIST2LAND LANDFALL IFLAG USA_AGENCY USA_ATCF_ID USA_LAT USA_LON USA_RECORD USA_STATUS USA_WIND USA_PRES USA_SSHS USA_R34_NE USA_R34_SE USA_R34_SW USA_R34_NW USA_R50_NE USA_R50_SE USA_R50_SW USA_R50_NW USA_R64_NE USA_R64_SE USA_R64_SW USA_R64_NW USA_POCI USA_ROCI USA_RMW USA_EYE TOKYO_LAT TOKYO_LON TOKYO_GRADE TOKYO_WIND TOKYO_PRES TOKYO_R50_DIR TOKYO_R50_LONG TOKYO_R50_SHORT TOKYO_R30_DIR TOKYO_R30_LONG TOKYO_R30_SHORT TOKYO_LAND CMA_LAT CMA_LON CMA_CAT CMA_WIND CMA_PRES HKO_LAT HKO_LON HKO_CAT HKO_WIND HKO_PRES NEWDELHI_LAT NEWDELHI_LON NEWDELHI_GRADE NEWDELHI_WIND NEWDELHI_PRES NEWDELHI_CI NEWDELHI_DP NEWDELHI_POCI REUNION_LAT REUNION_LON REUNION_TYPE REUNION_WIND REUNION_PRES REUNION_TNUM REUNION_CI REUNION_RMW REUNION_R34_NE REUNION_R34_SE REUNION_R34_SW REUNION_R34_NW REUNION_R50_NE REUNION_R50_SE REUNION_R50_SW REUNION_R50_NW REUNION_R64_NE REUNION_R64_SE REUNION_R64_SW REUNION_R64_NW BOM_LAT BOM_LON BOM_TYPE BOM_WIND BOM_PRES BOM_TNUM BOM_CI BOM_RMW BOM_R34_NE BOM_R34_SE BOM_R34_SW BOM_R34_NW BOM_R50_NE BOM_R50_SE BOM_R50_SW BOM_R50_NW BOM_R64_NE BOM_R64_SE BOM_R64_SW BOM_R64_NW BOM_ROCI BOM_POCI BOM_EYE BOM_POS_METHOD BOM_PRES_METHOD NADI_LAT NADI_LON NADI_CAT NADI_WIND NADI_PRES WELLINGTON_LAT WELLINGTON_LON WELLINGTON_WIND WELLINGTON_PRES DS824_LAT DS824_LON DS824_STAGE DS824_WIND DS824_PRES TD9636_LAT TD9636_LON TD9636_STAGE TD9636_WIND TD9636_PRES TD9635_LAT TD9635_LON TD9635_WIND TD9635_PRES TD9635_ROCI NEUMANN_LAT NEUMANN_LON NEUMANN_CLASS NEUMANN_WIND NEUMANN_PRES MLC_LAT MLC_LON MLC_CLASS MLC_WIND MLC_PRES USA_GUST BOM_GUST BOM_GUST_PER REUNION_GUST REUNION_GUST_PER USA_SEAHGT USA_SEARAD_NE USA_SEARAD_SE USA_SEARAD_SW USA_SEARAD_NW STORM_SPEED STORM_DIR
1945326S10058 1946 79 SI MM NOT_NAMED 1945-11-21 12:00:00 TS -9.90000 58.3000 main 979 959 O________OO___ jtwc_sh SH011946 -9.90000 58.3000 -1 -9.90000 58.3000 TC -9.90000 58.3000 1 5 259
1945326S10058 1946 79 SI MM NOT_NAMED 1945-11-21 15:00:00 TS -9.94966 58.0492 main 949 924 P________PP___ SH011946 -9.94004 58.0425 -1 -9.94004 58.0425 TC -9.96890 58.0626 1 5 257
1945326S10058 1946 79 SI MM NOT_NAMED 1945-11-21 18:00:00 TS -10.0134 57.8100 main 924 899 O________OP___ jtwc_sh SH011946 -10.0000 57.8000 -1 -10.0000 57.8000 TC -10.0402 57.8301 1 5 251
1945326S10058 1946 79 SI MM NOT_NAMED 1945-11-21 21:00:00 TS -10.1004 57.5925 main 899 875 P________PP___ SH011946 -10.0925 57.5850 -1 -10.0925 57.5850 TC -10.1164 57.6075 1 4 245
1945326S10058 1946 79 SI MM NOT_NAMED 1945-11-22 00:00:00 TS -10.2000 57.4000 main 875 850 O________OO___ jtwc_sh SH011946 -10.2000 57.4000 -1 -10.2000 57.4000 TC 25 -10.2000 57.4000 1 4 241
1945326S10058 1946 79 SI MM NOT_NAMED 1945-11-22 03:00:00 TS -10.2976 57.2368 main 850 836 P________PP___ SH011946 -10.3000 57.2500 -1 -10.3000 57.2500 TC 25 -10.2927 57.2106 1 4 238
1945326S10058 1946 79 SI MM NOT_NAMED 1945-11-22 06:00:00 TS -10.3975 57.0783 main 836 812 O________OP___ jtwc_sh SH011946 -10.4000 57.1000 -1 -10.4000 57.1000 TC 25 -10.3924 57.0350 1 4 240
1945326S10058 1946 79 SI MM NOT_NAMED 1945-11-22 09:00:00 TS -10.4986 56.8890 main 812 787 P________PP___ SH011946 -10.5000 56.9000 -1 -10.5000 56.9000 TC 25 -10.4959 56.8668 1 4 241
1945326S10058 1946 79 SI MM NOT_NAMED 1945-11-22 12:00:00 TS -10.6000 56.7000 main 787 763 O________OO___ jtwc_sh SH011946 -10.6000 56.7000 -1 -10.6000 56.7000 TC 25 -10.6000 56.7000 1 4 240
1945326S10058 1946 79 SI MM NOT_NAMED 1945-11-22 15:00:00 TS -10.7014 56.5268 main 763 749 P________PP___ SH011946 -10.7000 56.5500 -1 -10.7000 56.5500 TC 25 -10.7041 56.4804 1 4 239
1945326S10058 1946 79 SI MM NOT_NAMED 1945-11-22 18:00:00 TS -10.8025 56.3559 main 749 724 O________OP___ jtwc_sh SH011946 -10.8000 56.4000 -1 -10.8000 56.4000 TC 25 -10.8076 56.2676 1 4 241
1945326S10058 1946 79 SI MM NOT_NAMED 1945-11-22 21:00:00 TS -10.9074 56.1404 main 714 700 P________PP___ SH011946 -10.9075 56.1625 -1 -10.9075 56.1625 TC 25 -10.9072 56.0960 1 4 241
1945326S10058 1946 79 SI MM NOT_NAMED 1945-11-23 00:00:00 TS -11.0000 56.0000 main 700 700 O________OO___ jtwc_sh SH011946 -11.0000 56.0000 -1 -11.0000 56.0000 TC 25 -11.0000 56.0000 1 2 203
1945326S10058 1946 79 SI MM NOT_NAMED 1945-11-23 03:00:00 TS -11.0580 56.0679 main 707 707 P________PP___ SH011946 -11.0500 56.0550 -1 -11.0500 56.0550 TC 25 -11.0740 56.0938 1 2 118
1945326S10058 1946 79 SI MM NOT_NAMED 1945-11-23 06:00:00 TS -11.1141 56.2174 main 717 717 O________OP___ jtwc_sh SH011946 -11.1000 56.2000 -1 -11.1000 56.2000 TC 25 -11.1424 56.2521 1 3 115
1945326S10058 1946 79 SI MM NOT_NAMED 1945-11-23 09:00:00 TS -11.1998 56.3731 main 735 732 P________PP___ SH011946 -11.1925 56.3674 -1 -11.1925 56.3674 TC 25 -11.2145 56.3844 1 3 136
1945326S10058 1946 79 SI MM NOT_NAMED 1945-11-23 12:00:00 TS -11.3000 56.4000 main 732 697 O________OO___ jtwc_sh SH011946 -11.3000 56.4000 -1 -11.3000 56.4000 TC 25 -11.3000 56.4000 1 3 232
1945326S10058 1946 79 SI MM NOT_NAMED 1945-11-23 15:00:00 TS -11.3975 56.1152 main 697 652 P________PP___ SH011946 -11.3926 56.1175 -1 -11.3926 56.1175 TC 25 -11.4072 56.1107 1 7 253
1945326S10058 1946 79 SI MM NOT_NAMED 1945-11-23 18:00:00 TS -11.5095 55.7027 main 652 607 O________OP___ jtwc_sh SH011946 -11.5000 55.7000 -1 -11.5000 55.7000 TC 25 -11.5284 55.7081 1 8 253
1945326S10058 1946 79 SI MM NOT_NAMED 1945-11-23 21:00:00 TS -11.6485 55.2889 main 607 570 P________PP___ SH011946 -11.6426 55.2826 -1 -11.6426 55.2826 TC 25 -11.6603 55.3013 1 7 247
1945326S10058 1946 79 SI MM NOT_NAMED 1945-11-24 00:00:00 TS -11.8000 55.0000 main 570 567 O________OO___ jtwc_sh SH011946 -11.8000 55.0000 -1 -11.8000 55.0000 TC 25 -11.8000 55.0000 1 4 222
1945326S10058 1946 79 SI MM NOT_NAMED 1945-11-24 03:00:00 TS -11.9462 55.0216 main 567 564 P________PP___ SH011946 -11.9500 55.0399 -1 -11.9500 55.0399 TC 25 -11.9385 54.9849 1 3 151
1945326S10058 1946 79 SI MM NOT_NAMED 1945-11-24 06:00:00 TS -12.0949 55.1606 main 582 579 O________OP___ jtwc_sh SH011946 -12.1000 55.2000 -1 -12.1000 55.2000 TC 25 -12.0848 55.0820 1 4 142
1945326S10058 1946 79 SI MM NOT_NAMED 1945-11-24 09:00:00 TS -12.2462 55.2577 main 590 584 P________PP___ SH011946 -12.2500 55.2800 -1 -12.2500 55.2800 TC 25 -12.2387 55.2130 1 3 156
1945326S10058 1946 79 SI MM NOT_NAMED 1945-11-24 12:00:00 TS -12.4000 55.3000 main 584 581 O________OO___ jtwc_sh SH011946 -12.4000 55.3000 -1 -12.4000 55.3000 TC 25 -12.4000 55.3000 1 3 0
1945326S10058 1946 79 SI MM NOT_NAMED 1945-11-24 15:00:00 TS -12.5512 55.2475 main 568 555 P________PP___ SH011946 -12.5425 55.2300 -1 -12.5425 55.2300 TC 25 -12.5685 55.2826 1 4 209
1945326S10058 1946 79 SI MM NOT_NAMED 1945-11-24 18:00:00 TS -12.7142 55.1244 main 555 539 O________OP___ jtwc_sh SH011946 -12.7000 55.1000 -1 -12.7000 55.1000 TC 25 -12.7427 55.1731 1 4 218
1945326S10058 1946 79 SI MM NOT_NAMED 1945-11-24 21:00:00 TS -12.9002 54.9690 main 539 514 P________PP___ SH011946 -12.8900 54.9526 -1 -12.8900 54.9526 TC 25 -12.9205 55.0020 1 5 219
1945326S10058 1946 79 SI MM NOT_NAMED 1945-11-25 00:00:00 TS -13.1000 54.8000 main 514 O________OO___ jtwc_sh SH011946 -13.1000 54.8000 -1 -13.1000 54.8000 TC 25 -13.1000 54.8000 1 5 220

IBTrACS Databaseについて

本データベースは、米国NOAAが公開する1842年以降の世界の熱帯低気圧のベストトラックデータアーカイブInternational Best Track Archive for Climate Stewardship (IBTrACS)を、ウェブで閲覧しやすい形式に変換したものです。

最終更新日:2021-12-03